createdAt,value
2022-12-09T00:02:54.424Z,80.65
2022-12-09T00:07:55.936Z,82.39
2022-12-09T00:12:57.377Z,83.13
2022-12-09T00:17:58.612Z,81.93
2022-12-09T00:23:00.131Z,80.88
2022-12-09T00:28:01.585Z,80.23
2022-12-09T00:33:02.865Z,81.34
2022-12-09T00:38:04.371Z,80.40
2022-12-09T00:43:05.768Z,79.82
2022-12-09T00:48:07.300Z,81.40
2022-12-09T00:53:08.552Z,80.65
2022-12-09T00:58:09.826Z,79.87
2022-12-09T01:03:11.273Z,79.72
2022-12-09T01:08:12.936Z,80.41
2022-12-09T01:13:14.418Z,82.08
2022-12-09T01:18:15.810Z,80.83
2022-12-09T01:23:17.383Z,79.72
2022-12-09T01:28:18.687Z,79.24
2022-12-09T01:33:19.938Z,81.73
2022-12-09T01:38:21.448Z,80.41
2022-12-09T01:43:22.718Z,80.40
2022-12-09T01:48:23.962Z,79.27
2022-12-09T01:53:31.645Z,78.83
2022-12-09T01:58:33.175Z,79.38
2022-12-09T02:03:34.755Z,78.75
2022-12-09T02:08:36.452Z,78.79
2022-12-09T02:13:38.124Z,78.45
2022-12-09T02:18:39.723Z,77.15
2022-12-09T02:23:41.312Z,76.94
2022-12-09T02:28:42.589Z,77.11
2022-12-09T02:33:43.819Z,76.62
2022-12-09T02:38:45.207Z,77.04
2022-12-09T02:43:49.829Z,78.78
2022-12-09T02:48:52.219Z,79.41
2022-12-09T02:53:53.513Z,79.65
2022-12-09T02:58:54.772Z,79.33
2022-12-09T03:03:56.091Z,79.88
2022-12-09T03:08:58.133Z,79.35
2022-12-09T03:14:00.161Z,78.65
2022-12-09T03:19:01.834Z,77.63
2022-12-09T03:24:03.215Z,76.84
2022-12-09T03:29:04.769Z,76.12
2022-12-09T03:34:06.307Z,76.18
2022-12-09T03:39:07.677Z,75.92
2022-12-09T03:44:09.180Z,76.15
2022-12-09T03:49:10.431Z,77.07
2022-12-09T03:54:11.656Z,76.88
2022-12-09T03:59:13.189Z,76.73
2022-12-09T04:04:14.563Z,76.63
2022-12-09T04:09:15.959Z,76.39
2022-12-09T04:14:17.260Z,76.50
2022-12-09T04:19:18.822Z,77.13
2022-12-09T04:24:20.257Z,76.53
2022-12-09T04:29:21.819Z,76.04
2022-12-09T04:34:23.198Z,75.88
2022-12-09T04:39:24.613Z,76.25
2022-12-09T04:44:26.051Z,75.83
2022-12-09T04:49:27.600Z,76.20
2022-12-09T04:54:29.057Z,75.21
2022-12-09T04:59:30.338Z,75.58
2022-12-09T05:04:31.985Z,75.78
2022-12-09T05:09:34.361Z,76.30
2022-12-09T05:14:35.798Z,76.01
2022-12-09T05:19:37.301Z,75.88
2022-12-09T05:24:38.878Z,76.03
2022-12-09T05:29:40.207Z,76.38
2022-12-09T05:34:41.965Z,75.96
2022-12-09T05:39:43.637Z,76.52
2022-12-09T05:44:44.977Z,76.42
2022-12-09T05:49:46.871Z,77.36
2022-12-09T05:54:48.476Z,77.74
2022-12-09T05:59:49.826Z,80.05
2022-12-09T06:04:51.257Z,81.03
2022-12-09T06:09:52.777Z,82.81
2022-12-09T06:14:54.934Z,85.01
2022-12-09T06:19:56.482Z,85.74
2022-12-09T06:24:58.108Z,86.74
2022-12-09T06:29:59.516Z,87.32
2022-12-09T06:35:01.318Z,86.28
2022-12-09T06:40:02.781Z,85.41
2022-12-09T06:45:04.180Z,85.44
2022-12-09T06:50:07.336Z,85.53
2022-12-09T06:55:09.886Z,83.07
2022-12-09T07:00:11.418Z,81.64
2022-12-09T07:05:13.245Z,81.12
2022-12-09T07:10:15.342Z,82.10
2022-12-09T07:15:16.985Z,81.98
2022-12-09T07:20:18.713Z,81.14
2022-12-09T07:25:20.421Z,80.40
2022-12-09T07:30:22.060Z,79.10
2022-12-09T07:35:23.615Z,79.46
2022-12-09T07:40:25.801Z,82.05
2022-12-09T07:45:27.783Z,82.26
2022-12-09T07:50:29.334Z,81.69
2022-12-09T07:55:31.272Z,81.08
2022-12-09T08:00:32.709Z,80.07
2022-12-09T08:05:34.606Z,78.71
2022-12-09T08:10:36.258Z,79.43
2022-12-09T08:15:38.222Z,80.72
2022-12-09T08:20:41.097Z,79.56
2022-12-09T08:25:42.673Z,78.01
2022-12-09T08:30:44.479Z,79.02
2022-12-09T08:35:46.383Z,79.24
2022-12-09T08:40:47.665Z,78.88
2022-12-09T08:45:49.383Z,76.95
2022-12-09T08:50:51.126Z,74.52
2022-12-09T08:55:52.720Z,74.38
2022-12-09T09:00:54.400Z,72.99
2022-12-09T09:05:56.154Z,72.27
2022-12-09T09:10:57.839Z,70.84
2022-12-09T09:16:00.339Z,71.21
2022-12-09T09:21:01.938Z,69.99
2022-12-09T09:26:03.392Z,69.34
2022-12-09T09:31:05.421Z,69.05
2022-12-09T09:36:10.237Z,69.59
2022-12-09T09:41:12.632Z,68.98
2022-12-09T09:46:13.942Z,68.41
2022-12-09T09:51:15.772Z,68.32
2022-12-09T09:56:17.132Z,67.46
2022-12-09T10:01:18.906Z,67.69
2022-12-09T10:06:20.695Z,66.77
2022-12-09T10:11:22.440Z,67.28
2022-12-09T10:16:24.010Z,66.37
2022-12-09T10:21:25.828Z,66.71
2022-12-09T10:26:27.428Z,66.87
2022-12-09T10:31:28.991Z,65.84
2022-12-09T10:36:35.430Z,65.15
2022-12-09T10:41:56.619Z,64.73
2022-12-09T10:46:58.190Z,65.13
2022-12-09T10:52:00.040Z,65.81
2022-12-09T10:57:01.531Z,64.47
2022-12-09T11:02:03.697Z,66.18
2022-12-09T11:07:05.481Z,67.75
2022-12-09T11:12:07.870Z,66.87
2022-12-09T11:17:09.638Z,65.93
2022-12-09T11:22:11.438Z,66.18
2022-12-09T11:27:14.073Z,66.42
2022-12-09T11:32:16.033Z,66.81
2022-12-09T11:37:17.366Z,67.03
2022-12-09T11:42:19.650Z,66.39
2022-12-09T11:47:21.284Z,65.62
2022-12-09T11:52:22.814Z,66.17
2022-12-09T11:57:24.024Z,65.79
2022-12-09T12:02:25.292Z,66.77
2022-12-09T12:07:26.531Z,66.79
2022-12-09T12:12:27.734Z,66.08
2022-12-09T12:17:28.986Z,66.13
2022-12-09T12:22:30.301Z,65.60
2022-12-09T12:27:31.580Z,64.74
2022-12-09T12:32:32.840Z,65.51
2022-12-09T12:37:34.042Z,65.09
2022-12-09T12:42:35.353Z,66.38
2022-12-09T12:47:36.639Z,65.10
2022-12-09T12:57:59.053Z,65.67
2022-12-09T13:03:05.863Z,64.38
2022-12-09T13:08:10.367Z,65.54
2022-12-09T13:13:11.636Z,65.76
2022-12-09T13:18:12.901Z,66.44
2022-12-09T13:23:14.114Z,64.86
2022-12-09T13:28:15.325Z,65.63
2022-12-09T13:33:16.519Z,64.43
2022-12-09T13:38:17.716Z,64.54
2022-12-09T13:43:18.969Z,63.46
2022-12-09T13:48:20.446Z,63.56
2022-12-09T13:53:21.678Z,63.60
2022-12-09T13:58:23.049Z,63.56
2022-12-09T14:03:24.269Z,65.15
2022-12-09T14:08:25.587Z,64.54
2022-12-09T14:13:26.833Z,64.94
2022-12-09T14:18:28.113Z,67.13
2022-12-09T14:23:29.315Z,67.91
2022-12-09T14:28:30.762Z,69.22
2022-12-09T14:33:32.074Z,68.52
2022-12-09T14:38:33.341Z,68.78
2022-12-09T14:43:34.609Z,69.44
2022-12-09T14:48:35.856Z,70.10
2022-12-09T14:53:37.127Z,71.97
2022-12-09T14:58:38.329Z,71.45
2022-12-09T15:03:46.821Z,71.45
2022-12-09T15:08:48.321Z,71.91
2022-12-09T15:13:49.656Z,70.77
2022-12-09T15:18:50.898Z,71.37
2022-12-09T15:23:52.178Z,71.82
2022-12-09T15:28:53.456Z,71.30
2022-12-09T15:33:55.871Z,71.09
2022-12-09T15:38:57.177Z,70.10
2022-12-09T15:43:58.391Z,70.13
2022-12-09T15:48:59.792Z,70.79
2022-12-09T15:54:01.435Z,71.33
2022-12-09T15:59:02.696Z,82.06
2022-12-09T16:04:03.972Z,59.47
2022-12-09T16:09:05.237Z,62.07
2022-12-09T16:14:06.453Z,64.06
2022-12-09T16:19:07.692Z,66.90
2022-12-09T16:24:08.970Z,69.14
2022-12-09T16:29:10.213Z,69.93
2022-12-09T16:34:11.398Z,70.64
2022-12-09T16:39:13.699Z,72.33
2022-12-09T16:44:14.981Z,73.68
2022-12-09T16:49:16.255Z,74.29
2022-12-09T16:54:20.579Z,74.01
2022-12-09T16:59:22.523Z,73.44
2022-12-09T17:04:23.742Z,73.87
2022-12-09T17:09:25.226Z,73.70
2022-12-09T17:14:26.619Z,74.34
2022-12-09T17:19:27.834Z,74.46
2022-12-09T17:24:29.027Z,74.77
2022-12-09T17:29:30.289Z,74.69
2022-12-09T17:34:31.549Z,74.59
2022-12-09T17:39:32.819Z,75.34
2022-12-09T17:44:34.012Z,74.93
2022-12-09T17:49:35.233Z,74.59
2022-12-09T17:54:36.462Z,74.52
2022-12-09T17:59:37.661Z,74.02
2022-12-09T18:04:38.946Z,74.48
2022-12-09T18:09:40.262Z,75.83
2022-12-09T18:14:41.515Z,75.87
2022-12-09T18:19:42.721Z,76.82
2022-12-09T18:24:43.942Z,76.57
2022-12-09T18:29:45.132Z,76.30
2022-12-09T18:34:46.412Z,76.29
2022-12-09T18:39:47.728Z,74.62
2022-12-09T18:44:48.989Z,75.41
2022-12-09T18:49:50.408Z,76.39
2022-12-09T18:54:52.066Z,77.61
2022-12-09T18:59:53.313Z,77.79
2022-12-09T19:04:54.649Z,78.67
2022-12-09T19:09:55.896Z,78.43
2022-12-09T19:14:57.148Z,78.31
2022-12-09T19:19:58.420Z,77.05
2022-12-09T19:24:59.646Z,78.01
2022-12-09T19:30:00.857Z,78.25
2022-12-09T19:35:02.091Z,78.85
2022-12-09T19:40:03.308Z,78.81
2022-12-09T19:45:09.053Z,79.26
2022-12-09T19:50:13.593Z,77.34
2022-12-09T19:55:14.892Z,76.80
2022-12-09T20:00:16.137Z,77.37
2022-12-09T20:05:17.668Z,78.42
2022-12-09T20:10:18.956Z,78.23
2022-12-09T20:15:20.180Z,78.41
2022-12-09T20:20:21.399Z,78.68
2022-12-09T20:25:22.771Z,78.72
2022-12-09T20:30:24.039Z,76.98
2022-12-09T20:35:25.266Z,77.82
2022-12-09T20:40:26.506Z,76.75
2022-12-09T20:45:27.910Z,76.29
2022-12-09T20:50:32.319Z,75.12
2022-12-09T20:55:38.028Z,75.32
2022-12-09T21:00:39.453Z,76.22
2022-12-09T21:05:41.771Z,74.89
2022-12-09T21:10:43.043Z,74.42
2022-12-09T21:15:44.384Z,73.45
2022-12-09T21:20:45.632Z,74.00
2022-12-09T21:25:46.935Z,73.96
2022-12-09T21:30:48.180Z,73.94
2022-12-09T21:35:49.392Z,73.53
2022-12-09T21:40:50.621Z,73.33
2022-12-09T21:45:51.975Z,73.95
2022-12-09T21:50:53.226Z,73.17
2022-12-09T21:55:54.446Z,73.23
2022-12-09T22:00:55.760Z,73.38
2022-12-09T22:05:58.519Z,72.92
2022-12-09T22:10:59.928Z,73.03
2022-12-09T22:16:01.145Z,73.27
2022-12-09T22:21:24.125Z,74.49
2022-12-09T22:26:23.600Z,74.57
2022-12-09T22:31:24.943Z,75.02
2022-12-09T22:36:26.206Z,73.95
2022-12-09T22:41:27.633Z,74.26
2022-12-09T22:46:28.955Z,75.19
2022-12-09T22:51:32.902Z,76.40
2022-12-09T22:56:34.157Z,75.95
2022-12-09T23:01:36.576Z,75.68
2022-12-09T23:06:37.855Z,74.46
2022-12-09T23:16:40.336Z,74.85
2022-12-09T23:21:41.728Z,75.20
2022-12-09T23:26:43.155Z,74.16
2022-12-09T23:31:44.507Z,74.30
2022-12-09T23:36:45.918Z,74.99
2022-12-09T23:41:47.291Z,75.78
2022-12-09T23:46:48.691Z,74.62
2022-12-09T23:51:49.991Z,75.38
2022-12-09T23:56:51.224Z,75.32
